sensor_id;sensor_type;location;lat;lon;timestamp;P1;durP1;ratioP1;P2;durP2;ratioP2
11018;SDS011;5563;52.296;6.806;2023-04-15T00:01:27;5.20;;;4.07;;
11018;SDS011;5563;52.296;6.806;2023-04-15T00:03:54;4.93;;;4.00;;
11018;SDS011;5563;52.296;6.806;2023-04-15T00:06:28;6.87;;;3.97;;
11018;SDS011;5563;52.296;6.806;2023-04-15T00:08:54;5.63;;;4.17;;
11018;SDS011;5563;52.296;6.806;2023-04-15T00:11:29;6.67;;;4.37;;
11018;SDS011;5563;52.296;6.806;2023-04-15T00:13:56;4.97;;;4.43;;
11018;SDS011;5563;52.296;6.806;2023-04-15T00:16:30;4.80;;;4.17;;
11018;SDS011;5563;52.296;6.806;2023-04-15T00:18:56;5.97;;;4.30;;
11018;SDS011;5563;52.296;6.806;2023-04-15T00:21:24;4.77;;;4.10;;
11018;SDS011;5563;52.296;6.806;2023-04-15T00:23:57;4.83;;;4.13;;
11018;SDS011;5563;52.296;6.806;2023-04-15T00:26:30;6.00;;;4.67;;
11018;SDS011;5563;52.296;6.806;2023-04-15T00:28:56;6.27;;;4.50;;
11018;SDS011;5563;52.296;6.806;2023-04-15T00:31:30;5.40;;;4.17;;
11018;SDS011;5563;52.296;6.806;2023-04-15T00:33:57;5.67;;;5.07;;
11018;SDS011;5563;52.296;6.806;2023-04-15T00:36:25;6.07;;;4.27;;
11018;SDS011;5563;52.296;6.806;2023-04-15T00:38:58;6.77;;;4.70;;
11018;SDS011;5563;52.296;6.806;2023-04-15T00:41:25;4.77;;;4.37;;
11018;SDS011;5563;52.296;6.806;2023-04-15T00:44:00;5.83;;;4.97;;
11018;SDS011;5563;52.296;6.806;2023-04-15T00:46:36;5.27;;;4.77;;
11018;SDS011;5563;52.296;6.806;2023-04-15T00:49:11;5.33;;;4.63;;
11018;SDS011;5563;52.296;6.806;2023-04-15T00:51:38;7.10;;;5.20;;
11018;SDS011;5563;52.296;6.806;2023-04-15T00:54:12;7.03;;;5.13;;
11018;SDS011;5563;52.296;6.806;2023-04-15T00:56:39;8.67;;;5.00;;
11018;SDS011;5563;52.296;6.806;2023-04-15T00:59:13;7.60;;;6.00;;
11018;SDS011;5563;52.296;6.806;2023-04-15T01:01:40;6.13;;;5.37;;
11018;SDS011;5563;52.296;6.806;2023-04-15T01:04:20;6.90;;;5.53;;
11018;SDS011;5563;52.296;6.806;2023-04-15T01:06:47;5.90;;;5.30;;
11018;SDS011;5563;52.296;6.806;2023-04-15T01:09:21;7.57;;;5.57;;
11018;SDS011;5563;52.296;6.806;2023-04-15T01:11:48;6.83;;;5.90;;
11018;SDS011;5563;52.296;6.806;2023-04-15T01:14:14;7.70;;;6.10;;
11018;SDS011;5563;52.296;6.806;2023-04-15T01:16:48;8.47;;;5.83;;
11018;SDS011;5563;52.296;6.806;2023-04-15T01:19:15;6.63;;;5.83;;
11018;SDS011;5563;52.296;6.806;2023-04-15T01:21:50;7.73;;;6.13;;
11018;SDS011;5563;52.296;6.806;2023-04-15T01:24:17;7.40;;;6.00;;
11018;SDS011;5563;52.296;6.806;2023-04-15T01:26:51;6.20;;;5.60;;
11018;SDS011;5563;52.296;6.806;2023-04-15T01:29:18;7.60;;;5.57;;
11018;SDS011;5563;52.296;6.806;2023-04-15T01:31:53;7.67;;;5.73;;
11018;SDS011;5563;52.296;6.806;2023-04-15T01:34:21;6.40;;;5.07;;
11018;SDS011;5563;52.296;6.806;2023-04-15T01:36:55;6.63;;;5.77;;
11018;SDS011;5563;52.296;6.806;2023-04-15T01:39:21;7.13;;;5.70;;
11018;SDS011;5563;52.296;6.806;2023-04-15T01:41:48;6.50;;;5.77;;
11018;SDS011;5563;52.296;6.806;2023-04-15T01:44:22;7.23;;;5.80;;
11018;SDS011;5563;52.296;6.806;2023-04-15T01:46:55;7.10;;;5.53;;
11018;SDS011;5563;52.296;6.806;2023-04-15T01:49:28;7.73;;;5.73;;
11018;SDS011;5563;52.296;6.806;2023-04-15T01:51:55;6.80;;;6.00;;
11018;SDS011;5563;52.296;6.806;2023-04-15T01:54:28;8.23;;;5.87;;
11018;SDS011;5563;52.296;6.806;2023-04-15T01:56:55;8.00;;;6.53;;
11018;SDS011;5563;52.296;6.806;2023-04-15T01:59:29;7.50;;;6.03;;
11018;SDS011;5563;52.296;6.806;2023-04-15T02:01:56;7.63;;;6.43;;
11018;SDS011;5563;52.296;6.806;2023-04-15T02:04:30;7.63;;;6.20;;
11018;SDS011;5563;52.296;6.806;2023-04-15T02:07:03;6.80;;;6.10;;
11018;SDS011;5563;52.296;6.806;2023-04-15T02:09:29;7.13;;;6.10;;
11018;SDS011;5563;52.296;6.806;2023-04-15T02:12:04;6.70;;;6.00;;
11018;SDS011;5563;52.296;6.806;2023-04-15T02:14:31;7.87;;;6.13;;
11018;SDS011;5563;52.296;6.806;2023-04-15T02:17:04;6.40;;;5.70;;
11018;SDS011;5563;52.296;6.806;2023-04-15T02:19:34;7.67;;;6.27;;
11018;SDS011;5563;52.296;6.806;2023-04-15T02:22:08;6.67;;;6.07;;
11018;SDS011;5563;52.296;6.806;2023-04-15T02:24:36;8.03;;;6.20;;
11018;SDS011;5563;52.296;6.806;2023-04-15T02:27:10;6.90;;;5.80;;
11018;SDS011;5563;52.296;6.806;2023-04-15T02:29:44;8.00;;;6.10;;
11018;SDS011;5563;52.296;6.806;2023-04-15T02:32:18;6.70;;;6.10;;
11018;SDS011;5563;52.296;6.806;2023-04-15T02:34:45;6.60;;;5.97;;
11018;SDS011;5563;52.296;6.806;2023-04-15T02:37:19;7.10;;;6.00;;
11018;SDS011;5563;52.296;6.806;2023-04-15T02:39:46;8.30;;;6.33;;
11018;SDS011;5563;52.296;6.806;2023-04-15T02:42:13;8.83;;;6.50;;
11018;SDS011;5563;52.296;6.806;2023-04-15T02:44:46;7.17;;;6.00;;
11018;SDS011;5563;52.296;6.806;2023-04-15T02:47:13;7.10;;;6.30;;
11018;SDS011;5563;52.296;6.806;2023-04-15T02:49:47;7.00;;;6.30;;
11018;SDS011;5563;52.296;6.806;2023-04-15T02:52:13;7.47;;;6.47;;
11018;SDS011;5563;52.296;6.806;2023-04-15T02:54:47;7.10;;;6.40;;
11018;SDS011;5563;52.296;6.806;2023-04-15T02:57:14;7.63;;;6.27;;
11018;SDS011;5563;52.296;6.806;2023-04-15T02:59:47;6.70;;;6.10;;
11018;SDS011;5563;52.296;6.806;2023-04-15T03:02:13;8.37;;;5.93;;
11018;SDS011;5563;52.296;6.806;2023-04-15T03:04:47;6.47;;;5.87;;
11018;SDS011;5563;52.296;6.806;2023-04-15T03:07:21;6.90;;;6.20;;
11018;SDS011;5563;52.296;6.806;2023-04-15T03:09:54;8.87;;;6.60;;
11018;SDS011;5563;52.296;6.806;2023-04-15T03:12:20;7.27;;;6.50;;
11018;SDS011;5563;52.296;6.806;2023-04-15T03:14:54;8.20;;;6.47;;
11018;SDS011;5563;52.296;6.806;2023-04-15T03:17:27;7.90;;;6.90;;
11018;SDS011;5563;52.296;6.806;2023-04-15T03:19:54;7.13;;;6.43;;
11018;SDS011;5563;52.296;6.806;2023-04-15T03:22:27;7.00;;;6.27;;
11018;SDS011;5563;52.296;6.806;2023-04-15T03:24:53;9.20;;;6.63;;
11018;SDS011;5563;52.296;6.806;2023-04-15T03:27:27;7.60;;;6.60;;
11018;SDS011;5563;52.296;6.806;2023-04-15T03:29:53;9.60;;;7.13;;
11018;SDS011;5563;52.296;6.806;2023-04-15T03:32:28;7.60;;;6.77;;
11018;SDS011;5563;52.296;6.806;2023-04-15T03:34:54;8.03;;;6.77;;
11018;SDS011;5563;52.296;6.806;2023-04-15T03:37:21;8.93;;;6.67;;
11018;SDS011;5563;52.296;6.806;2023-04-15T03:39:55;7.60;;;6.30;;
11018;SDS011;5563;52.296;6.806;2023-04-15T03:42:22;8.80;;;7.07;;
11018;SDS011;5563;52.296;6.806;2023-04-15T03:45:01;9.30;;;7.07;;
11018;SDS011;5563;52.296;6.806;2023-04-15T03:47:29;9.40;;;7.70;;
11018;SDS011;5563;52.296;6.806;2023-04-15T03:50:03;8.67;;;7.30;;
11018;SDS011;5563;52.296;6.806;2023-04-15T03:52:30;8.93;;;7.97;;
11018;SDS011;5563;52.296;6.806;2023-04-15T03:55:03;9.27;;;7.23;;
11018;SDS011;5563;52.296;6.806;2023-04-15T03:57:30;9.37;;;7.73;;
11018;SDS011;5563;52.296;6.806;2023-04-15T04:00:04;9.50;;;7.63;;
11018;SDS011;5563;52.296;6.806;2023-04-15T04:02:32;9.23;;;8.23;;
11018;SDS011;5563;52.296;6.806;2023-04-15T04:05:05;12.27;;;8.83;;
11018;SDS011;5563;52.296;6.806;2023-04-15T04:07:32;12.10;;;9.03;;
11018;SDS011;5563;52.296;6.806;2023-04-15T04:10:05;9.60;;;7.90;;
11018;SDS011;5563;52.296;6.806;2023-04-15T04:12:32;8.83;;;7.90;;
11018;SDS011;5563;52.296;6.806;2023-04-15T04:14:59;9.73;;;8.73;;
11018;SDS011;5563;52.296;6.806;2023-04-15T04:17:32;8.93;;;8.03;;
11018;SDS011;5563;52.296;6.806;2023-04-15T04:20:05;10.23;;;8.43;;
11018;SDS011;5563;52.296;6.806;2023-04-15T04:22:39;9.23;;;8.30;;
11018;SDS011;5563;52.296;6.806;2023-04-15T04:25:07;9.70;;;8.63;;
11018;SDS011;5563;52.296;6.806;2023-04-15T04:27:42;10.20;;;8.47;;
11018;SDS011;5563;52.296;6.806;2023-04-15T04:30:09;10.63;;;8.73;;
11018;SDS011;5563;52.296;6.806;2023-04-15T04:32:42;9.50;;;8.40;;
11018;SDS011;5563;52.296;6.806;2023-04-15T04:35:09;9.50;;;8.20;;
11018;SDS011;5563;52.296;6.806;2023-04-15T04:37:43;9.63;;;8.63;;
11018;SDS011;5563;52.296;6.806;2023-04-15T04:40:19;11.27;;;9.67;;
11018;SDS011;5563;52.296;6.806;2023-04-15T04:43:06;9.73;;;8.20;;
11018;SDS011;5563;52.296;6.806;2023-04-15T04:45:40;9.90;;;8.90;;
11018;SDS011;5563;52.296;6.806;2023-04-15T04:48:13;11.63;;;9.07;;
11018;SDS011;5563;52.296;6.806;2023-04-15T04:50:46;9.13;;;8.23;;
11018;SDS011;5563;52.296;6.806;2023-04-15T04:53:19;10.17;;;8.70;;
11018;SDS011;5563;52.296;6.806;2023-04-15T04:55:46;12.87;;;8.93;;
11018;SDS011;5563;52.296;6.806;2023-04-15T04:58:19;11.27;;;9.37;;
11018;SDS011;5563;52.296;6.806;2023-04-15T05:00:45;10.53;;;9.40;;
11018;SDS011;5563;52.296;6.806;2023-04-15T05:03:19;10.13;;;9.13;;
11018;SDS011;5563;52.296;6.806;2023-04-15T05:05:52;11.40;;;9.37;;
11018;SDS011;5563;52.296;6.806;2023-04-15T05:08:26;9.87;;;8.87;;
11018;SDS011;5563;52.296;6.806;2023-04-15T05:10:59;10.67;;;8.90;;
11018;SDS011;5563;52.296;6.806;2023-04-15T05:13:26;11.03;;;9.53;;
11018;SDS011;5563;52.296;6.806;2023-04-15T05:15:59;9.47;;;8.53;;
11018;SDS011;5563;52.296;6.806;2023-04-15T05:18:32;10.20;;;9.10;;
11018;SDS011;5563;52.296;6.806;2023-04-15T05:21:06;9.97;;;8.97;;
11018;SDS011;5563;52.296;6.806;2023-04-15T05:23:33;11.43;;;9.70;;
11018;SDS011;5563;52.296;6.806;2023-04-15T05:25:59;12.63;;;10.03;;
11018;SDS011;5563;52.296;6.806;2023-04-15T05:28:33;12.30;;;9.60;;
11018;SDS011;5563;52.296;6.806;2023-04-15T05:31:06;12.37;;;10.43;;
11018;SDS011;5563;52.296;6.806;2023-04-15T05:33:40;11.23;;;9.60;;
11018;SDS011;5563;52.296;6.806;2023-04-15T05:36:07;11.47;;;10.20;;
11018;SDS011;5563;52.296;6.806;2023-04-15T05:38:40;11.93;;;10.20;;
11018;SDS011;5563;52.296;6.806;2023-04-15T05:41:07;12.87;;;11.00;;
11018;SDS011;5563;52.296;6.806;2023-04-15T05:43:50;12.17;;;10.97;;
11018;SDS011;5563;52.296;6.806;2023-04-15T05:46:17;13.20;;;11.00;;
11018;SDS011;5563;52.296;6.806;2023-04-15T05:48:51;12.00;;;10.60;;
11018;SDS011;5563;52.296;6.806;2023-04-15T05:51:20;13.33;;;11.93;;
11018;SDS011;5563;52.296;6.806;2023-04-15T05:53:53;14.37;;;11.00;;
11018;SDS011;5563;52.296;6.806;2023-04-15T05:56:19;12.77;;;11.43;;
11018;SDS011;5563;52.296;6.806;2023-04-15T05:58:53;15.60;;;11.97;;
11018;SDS011;5563;52.296;6.806;2023-04-15T06:01:20;14.27;;;11.90;;
11018;SDS011;5563;52.296;6.806;2023-04-15T06:03:54;12.80;;;11.37;;
11018;SDS011;5563;52.296;6.806;2023-04-15T06:06:21;13.93;;;12.47;;
11018;SDS011;5563;52.296;6.806;2023-04-15T06:08:55;15.97;;;13.10;;
11018;SDS011;5563;52.296;6.806;2023-04-15T06:11:23;15.67;;;12.67;;
11018;SDS011;5563;52.296;6.806;2023-04-15T06:13:56;18.47;;;13.77;;
11018;SDS011;5563;52.296;6.806;2023-04-15T06:16:23;16.57;;;14.27;;
11018;SDS011;5563;52.296;6.806;2023-04-15T06:18:56;17.37;;;13.50;;
11018;SDS011;5563;52.296;6.806;2023-04-15T06:21:29;15.70;;;12.93;;
11018;SDS011;5563;52.296;6.806;2023-04-15T06:23:57;14.50;;;12.53;;
11018;SDS011;5563;52.296;6.806;2023-04-15T06:26:32;17.23;;;13.70;;
11018;SDS011;5563;52.296;6.806;2023-04-15T06:28:59;15.33;;;13.10;;
11018;SDS011;5563;52.296;6.806;2023-04-15T06:31:32;14.80;;;12.57;;
11018;SDS011;5563;52.296;6.806;2023-04-15T06:33:59;15.30;;;12.73;;
11018;SDS011;5563;52.296;6.806;2023-04-15T06:36:32;17.43;;;13.73;;
11018;SDS011;5563;52.296;6.806;2023-04-15T06:38:59;15.33;;;12.40;;
11018;SDS011;5563;52.296;6.806;2023-04-15T06:41:33;14.83;;;12.83;;
11018;SDS011;5563;52.296;6.806;2023-04-15T06:44:07;18.87;;;12.73;;
11018;SDS011;5563;52.296;6.806;2023-04-15T06:46:47;13.00;;;11.60;;
11018;SDS011;5563;52.296;6.806;2023-04-15T06:49:14;16.40;;;13.10;;
11018;SDS011;5563;52.296;6.806;2023-04-15T06:51:47;14.73;;;11.83;;
11018;SDS011;5563;52.296;6.806;2023-04-15T06:54:20;15.83;;;11.87;;
11018;SDS011;5563;52.296;6.806;2023-04-15T06:56:47;13.40;;;11.83;;
11018;SDS011;5563;52.296;6.806;2023-04-15T06:59:20;15.13;;;11.80;;
11018;SDS011;5563;52.296;6.806;2023-04-15T07:01:47;15.30;;;12.90;;
11018;SDS011;5563;52.296;6.806;2023-04-15T07:04:20;14.47;;;11.43;;
11018;SDS011;5563;52.296;6.806;2023-04-15T07:06:47;16.43;;;11.70;;
11018;SDS011;5563;52.296;6.806;2023-04-15T07:09:20;13.47;;;11.60;;
11018;SDS011;5563;52.296;6.806;2023-04-15T07:11:48;15.10;;;11.85;;
11018;SDS011;5563;52.296;6.806;2023-04-15T07:14:21;15.10;;;11.57;;
11018;SDS011;5563;52.296;6.806;2023-04-15T07:16:48;14.03;;;12.00;;
11018;SDS011;5563;52.296;6.806;2023-04-15T07:19:21;14.57;;;11.32;;
11018;SDS011;5563;52.296;6.806;2023-04-15T07:21:55;13.40;;;10.90;;
11018;SDS011;5563;52.296;6.806;2023-04-15T07:24:28;16.43;;;11.73;;
11018;SDS011;5563;52.296;6.806;2023-04-15T07:27:02;13.32;;;10.95;;
11018;SDS011;5563;52.296;6.806;2023-04-15T07:29:29;14.20;;;11.65;;
11018;SDS011;5563;52.296;6.806;2023-04-15T07:32:03;14.38;;;10.85;;
11018;SDS011;5563;52.296;6.806;2023-04-15T07:34:30;14.90;;;11.75;;
11018;SDS011;5563;52.296;6.806;2023-04-15T07:37:03;13.80;;;11.35;;
11018;SDS011;5563;52.296;6.806;2023-04-15T07:39:29;16.45;;;11.80;;
11018;SDS011;5563;52.296;6.806;2023-04-15T07:42:03;15.73;;;11.90;;
11018;SDS011;5563;52.296;6.806;2023-04-15T07:44:42;15.52;;;11.48;;
11018;SDS011;5563;52.296;6.806;2023-04-15T07:47:16;14.63;;;11.27;;
11018;SDS011;5563;52.296;6.806;2023-04-15T07:49:42;12.75;;;11.38;;
11018;SDS011;5563;52.296;6.806;2023-04-15T07:52:16;13.15;;;10.50;;
11018;SDS011;5563;52.296;6.806;2023-04-15T07:54:49;13.00;;;10.45;;
11018;SDS011;5563;52.296;6.806;2023-04-15T07:57:16;12.73;;;10.90;;
11018;SDS011;5563;52.296;6.806;2023-04-15T07:59:49;11.93;;;10.20;;
11018;SDS011;5563;52.296;6.806;2023-04-15T08:02:15;13.73;;;10.20;;
11018;SDS011;5563;52.296;6.806;2023-04-15T08:04:49;13.85;;;11.60;;
11018;SDS011;5563;52.296;6.806;2023-04-15T08:07:16;14.90;;;11.60;;
11018;SDS011;5563;52.296;6.806;2023-04-15T08:09:50;12.68;;;10.20;;
11018;SDS011;5563;52.296;6.806;2023-04-15T08:12:17;12.88;;;11.45;;
11018;SDS011;5563;52.296;6.806;2023-04-15T08:14:50;13.05;;;10.15;;
11018;SDS011;5563;52.296;6.806;2023-04-15T08:17:17;11.43;;;10.23;;
11018;SDS011;5563;52.296;6.806;2023-04-15T08:19:44;11.57;;;9.63;;
11018;SDS011;5563;52.296;6.806;2023-04-15T08:22:17;11.65;;;9.90;;
11018;SDS011;5563;52.296;6.806;2023-04-15T08:24:46;11.38;;;9.23;;
11018;SDS011;5563;52.296;6.806;2023-04-15T08:27:19;11.73;;;8.52;;
11018;SDS011;5563;52.296;6.806;2023-04-15T08:29:46;9.57;;;8.57;;
11018;SDS011;5563;52.296;6.806;2023-04-15T08:32:19;7.88;;;7.10;;
11018;SDS011;5563;52.296;6.806;2023-04-15T08:34:46;9.40;;;7.60;;
11018;SDS011;5563;52.296;6.806;2023-04-15T08:37:20;7.85;;;7.00;;
11018;SDS011;5563;52.296;6.806;2023-04-15T08:39:48;7.68;;;6.57;;
11018;SDS011;5563;52.296;6.806;2023-04-15T08:42:22;7.80;;;6.70;;
11018;SDS011;5563;52.296;6.806;2023-04-15T08:45:03;7.60;;;6.65;;
11018;SDS011;5563;52.296;6.806;2023-04-15T08:47:37;9.80;;;7.35;;
11018;SDS011;5563;52.296;6.806;2023-04-15T08:50:13;8.93;;;6.97;;
11018;SDS011;5563;52.296;6.806;2023-04-15T08:52:48;8.45;;;6.85;;
11018;SDS011;5563;52.296;6.806;2023-04-15T08:55:21;8.35;;;6.80;;
11018;SDS011;5563;52.296;6.806;2023-04-15T08:57:55;6.90;;;6.20;;
11018;SDS011;5563;52.296;6.806;2023-04-15T09:00:22;7.60;;;6.30;;
11018;SDS011;5563;52.296;6.806;2023-04-15T09:02:56;7.28;;;6.55;;
11018;SDS011;5563;52.296;6.806;2023-04-15T09:05:32;6.35;;;5.70;;
11018;SDS011;5563;52.296;6.806;2023-04-15T09:08:00;6.88;;;6.13;;
11018;SDS011;5563;52.296;6.806;2023-04-15T09:10:34;6.50;;;5.78;;
11018;SDS011;5563;52.296;6.806;2023-04-15T09:13:02;7.68;;;5.85;;
11018;SDS011;5563;52.296;6.806;2023-04-15T09:15:39;7.80;;;5.60;;
11018;SDS011;5563;52.296;6.806;2023-04-15T09:18:05;6.88;;;5.70;;
11018;SDS011;5563;52.296;6.806;2023-04-15T09:20:39;6.75;;;4.97;;
11018;SDS011;5563;52.296;6.806;2023-04-15T09:23:11;5.63;;;5.13;;
11018;SDS011;5563;52.296;6.806;2023-04-15T09:25:46;7.35;;;5.47;;
11018;SDS011;5563;52.296;6.806;2023-04-15T09:28:14;5.60;;;4.68;;
11018;SDS011;5563;52.296;6.806;2023-04-15T09:30:59;4.97;;;4.40;;
11018;SDS011;5563;52.296;6.806;2023-04-15T09:33:33;6.25;;;4.70;;
11018;SDS011;5563;52.296;6.806;2023-04-15T09:36:06;5.40;;;4.90;;
11018;SDS011;5563;52.296;6.806;2023-04-15T09:38:33;5.43;;;4.22;;
11018;SDS011;5563;52.296;6.806;2023-04-15T09:41:09;5.07;;;4.53;;
11018;SDS011;5563;52.296;6.806;2023-04-15T09:43:50;4.82;;;4.28;;
11018;SDS011;5563;52.296;6.806;2023-04-15T09:46:42;5.97;;;4.40;;
11018;SDS011;5563;52.296;6.806;2023-04-15T09:49:24;5.38;;;4.40;;
11018;SDS011;5563;52.296;6.806;2023-04-15T09:51:52;6.22;;;4.70;;
11018;SDS011;5563;52.296;6.806;2023-04-15T09:54:36;6.15;;;5.53;;
11018;SDS011;5563;52.296;6.806;2023-04-15T09:57:07;5.32;;;4.78;;
11018;SDS011;5563;52.296;6.806;2023-04-15T09:59:41;5.43;;;4.93;;
11018;SDS011;5563;52.296;6.806;2023-04-15T10:02:08;5.38;;;4.88;;
11018;SDS011;5563;52.296;6.806;2023-04-15T10:04:43;5.38;;;4.88;;
11018;SDS011;5563;52.296;6.806;2023-04-15T10:07:11;5.03;;;4.45;;
11018;SDS011;5563;52.296;6.806;2023-04-15T10:09:44;4.65;;;4.10;;
11018;SDS011;5563;52.296;6.806;2023-04-15T10:12:12;5.93;;;3.92;;
11018;SDS011;5563;52.296;6.806;2023-04-15T10:14:51;4.70;;;4.15;;
11018;SDS011;5563;52.296;6.806;2023-04-15T10:17:21;4.13;;;3.70;;
11018;SDS011;5563;52.296;6.806;2023-04-15T10:19:57;4.35;;;3.95;;
11018;SDS011;5563;52.296;6.806;2023-04-15T10:22:34;5.40;;;3.70;;
11018;SDS011;5563;52.296;6.806;2023-04-15T10:25:09;4.28;;;3.88;;
11018;SDS011;5563;52.296;6.806;2023-04-15T10:27:38;3.47;;;3.00;;
11018;SDS011;5563;52.296;6.806;2023-04-15T10:30:14;4.30;;;3.65;;
11018;SDS011;5563;52.296;6.806;2023-04-15T10:32:48;5.80;;;3.97;;
11018;SDS011;5563;52.296;6.806;2023-04-15T10:35:15;5.28;;;3.05;;
11018;SDS011;5563;52.296;6.806;2023-04-15T10:37:50;3.13;;;2.80;;
11018;SDS011;5563;52.296;6.806;2023-04-15T10:40:29;3.42;;;3.13;;
11018;SDS011;5563;52.296;6.806;2023-04-15T10:43:11;3.20;;;2.90;;
11018;SDS011;5563;52.296;6.806;2023-04-15T10:46:04;4.97;;;3.28;;
11018;SDS011;5563;52.296;6.806;2023-04-15T10:48:38;3.38;;;3.08;;
11018;SDS011;5563;52.296;6.806;2023-04-15T10:51:12;5.75;;;3.33;;
11018;SDS011;5563;52.296;6.806;2023-04-15T10:53:46;3.40;;;2.80;;
11018;SDS011;5563;52.296;6.806;2023-04-15T10:56:13;4.03;;;3.33;;
11018;SDS011;5563;52.296;6.806;2023-04-15T10:58:49;3.30;;;3.05;;
11018;SDS011;5563;52.296;6.806;2023-04-15T11:01:18;4.57;;;3.72;;
11018;SDS011;5563;52.296;6.806;2023-04-15T11:03:55;3.47;;;3.17;;
11018;SDS011;5563;52.296;6.806;2023-04-15T11:06:22;3.85;;;3.30;;
11018;SDS011;5563;52.296;6.806;2023-04-15T11:09:32;3.25;;;2.75;;
11018;SDS011;5563;52.296;6.806;2023-04-15T11:12:06;4.28;;;2.88;;
11018;SDS011;5563;52.296;6.806;2023-04-15T11:14:38;3.47;;;2.80;;
11018;SDS011;5563;52.296;6.806;2023-04-15T11:17:12;4.40;;;3.30;;
11018;SDS011;5563;52.296;6.806;2023-04-15T11:19:39;3.92;;;3.17;;
11018;SDS011;5563;52.296;6.806;2023-04-15T11:22:12;7.70;;;6.20;;
11018;SDS011;5563;52.296;6.806;2023-04-15T11:24:48;30.42;;;22.92;;
11018;SDS011;5563;52.296;6.806;2023-04-15T11:27:22;5.80;;;3.42;;
11018;SDS011;5563;52.296;6.806;2023-04-15T11:29:49;3.42;;;3.00;;
11018;SDS011;5563;52.296;6.806;2023-04-15T11:32:22;3.30;;;3.00;;
11018;SDS011;5563;52.296;6.806;2023-04-15T11:34:50;3.40;;;2.65;;
11018;SDS011;5563;52.296;6.806;2023-04-15T11:37:27;3.80;;;2.83;;
11018;SDS011;5563;52.296;6.806;2023-04-15T11:39:55;3.45;;;2.90;;
11018;SDS011;5563;52.296;6.806;2023-04-15T11:42:28;2.67;;;2.47;;
11018;SDS011;5563;52.296;6.806;2023-04-15T11:45:15;5.05;;;2.58;;
11018;SDS011;5563;52.296;6.806;2023-04-15T11:47:48;3.20;;;2.70;;
11018;SDS011;5563;52.296;6.806;2023-04-15T11:50:15;2.90;;;2.53;;
11018;SDS011;5563;52.296;6.806;2023-04-15T11:52:56;4.25;;;2.60;;
11018;SDS011;5563;52.296;6.806;2023-04-15T11:55:24;5.65;;;2.88;;
11018;SDS011;5563;52.296;6.806;2023-04-15T11:58:14;3.55;;;2.80;;
11018;SDS011;5563;52.296;6.806;2023-04-15T12:00:46;4.15;;;2.55;;
11018;SDS011;5563;52.296;6.806;2023-04-15T12:03:36;3.63;;;2.50;;
11018;SDS011;5563;52.296;6.806;2023-04-15T12:06:22;2.75;;;2.55;;
11018;SDS011;5563;52.296;6.806;2023-04-15T12:08:58;4.78;;;2.60;;
11018;SDS011;5563;52.296;6.806;2023-04-15T12:14:01;3.08;;;2.55;;
11018;SDS011;5563;52.296;6.806;2023-04-15T12:16:35;2.90;;;2.63;;
11018;SDS011;5563;52.296;6.806;2023-04-15T12:22:05;4.10;;;2.40;;
11018;SDS011;5563;52.296;6.806;2023-04-15T12:24:42;3.25;;;2.42;;
11018;SDS011;5563;52.296;6.806;2023-04-15T12:27:15;4.25;;;2.58;;
11018;SDS011;5563;52.296;6.806;2023-04-15T12:30:04;3.58;;;2.67;;
11018;SDS011;5563;52.296;6.806;2023-04-15T12:32:34;3.95;;;2.85;;
11018;SDS011;5563;52.296;6.806;2023-04-15T12:35:08;4.80;;;2.75;;
11018;SDS011;5563;52.296;6.806;2023-04-15T12:37:35;3.95;;;2.70;;
11018;SDS011;5563;52.296;6.806;2023-04-15T12:40:09;3.95;;;2.95;;
11018;SDS011;5563;52.296;6.806;2023-04-15T12:42:36;2.97;;;2.53;;
11018;SDS011;5563;52.296;6.806;2023-04-15T12:45:03;20.38;;;14.27;;
11018;SDS011;5563;52.296;6.806;2023-04-15T12:47:37;3.40;;;2.72;;
11018;SDS011;5563;52.296;6.806;2023-04-15T12:50:10;4.32;;;2.58;;
11018;SDS011;5563;52.296;6.806;2023-04-15T12:52:37;4.05;;;2.50;;
11018;SDS011;5563;52.296;6.806;2023-04-15T12:55:10;2.60;;;2.40;;
11018;SDS011;5563;52.296;6.806;2023-04-15T12:57:37;2.45;;;2.00;;
11018;SDS011;5563;52.296;6.806;2023-04-15T13:00:11;4.97;;;2.78;;
11018;SDS011;5563;52.296;6.806;2023-04-15T13:02:45;2.45;;;2.22;;
11018;SDS011;5563;52.296;6.806;2023-04-15T13:05:12;3.40;;;2.40;;
11018;SDS011;5563;52.296;6.806;2023-04-15T13:07:47;5.20;;;2.63;;
11018;SDS011;5563;52.296;6.806;2023-04-15T13:10:14;11.07;;;8.68;;
11018;SDS011;5563;52.296;6.806;2023-04-15T13:12:48;5.60;;;3.85;;
11018;SDS011;5563;52.296;6.806;2023-04-15T13:15:15;4.70;;;2.58;;
11018;SDS011;5563;52.296;6.806;2023-04-15T13:17:45;2.30;;;2.10;;
11018;SDS011;5563;52.296;6.806;2023-04-15T13:20:19;5.40;;;2.58;;
11018;SDS011;5563;52.296;6.806;2023-04-15T13:22:46;2.50;;;2.30;;
11018;SDS011;5563;52.296;6.806;2023-04-15T13:25:20;3.15;;;2.47;;
11018;SDS011;5563;52.296;6.806;2023-04-15T13:27:47;3.78;;;2.45;;
11018;SDS011;5563;52.296;6.806;2023-04-15T13:30:21;3.10;;;2.50;;
11018;SDS011;5563;52.296;6.806;2023-04-15T13:32:48;3.60;;;2.50;;
11018;SDS011;5563;52.296;6.806;2023-04-15T13:35:22;3.05;;;2.63;;
11018;SDS011;5563;52.296;6.806;2023-04-15T13:37:49;3.22;;;2.60;;
11018;SDS011;5563;52.296;6.806;2023-04-15T13:40:22;4.47;;;2.70;;
11018;SDS011;5563;52.296;6.806;2023-04-15T13:42:50;6.40;;;3.38;;
11018;SDS011;5563;52.296;6.806;2023-04-15T13:45:37;23.40;;;17.10;;
11018;SDS011;5563;52.296;6.806;2023-04-15T13:48:04;7.47;;;5.07;;
11018;SDS011;5563;52.296;6.806;2023-04-15T13:50:38;3.53;;;2.58;;
11018;SDS011;5563;52.296;6.806;2023-04-15T13:53:13;5.03;;;2.75;;
11018;SDS011;5563;52.296;6.806;2023-04-15T13:55:59;4.45;;;2.47;;
11018;SDS011;5563;52.296;6.806;2023-04-15T13:58:25;3.90;;;2.60;;
11018;SDS011;5563;52.296;6.806;2023-04-15T14:00:59;4.57;;;2.88;;
11018;SDS011;5563;52.296;6.806;2023-04-15T14:03:29;4.13;;;2.80;;
11018;SDS011;5563;52.296;6.806;2023-04-15T14:06:04;5.00;;;2.80;;
11018;SDS011;5563;52.296;6.806;2023-04-15T14:08:38;4.03;;;2.70;;
11018;SDS011;5563;52.296;6.806;2023-04-15T14:11:05;4.05;;;2.72;;
11018;SDS011;5563;52.296;6.806;2023-04-15T14:13:38;3.80;;;2.65;;
11018;SDS011;5563;52.296;6.806;2023-04-15T14:16:05;3.65;;;2.88;;
11018;SDS011;5563;52.296;6.806;2023-04-15T14:18:38;4.75;;;2.90;;
11018;SDS011;5563;52.296;6.806;2023-04-15T14:21:05;3.55;;;2.70;;
11018;SDS011;5563;52.296;6.806;2023-04-15T14:23:39;3.85;;;2.60;;
11018;SDS011;5563;52.296;6.806;2023-04-15T14:26:06;4.22;;;2.20;;
11018;SDS011;5563;52.296;6.806;2023-04-15T14:28:39;3.45;;;2.40;;
11018;SDS011;5563;52.296;6.806;2023-04-15T14:31:06;4.30;;;2.58;;
11018;SDS011;5563;52.296;6.806;2023-04-15T14:33:39;2.17;;;1.98;;
11018;SDS011;5563;52.296;6.806;2023-04-15T14:36:07;5.65;;;2.58;;
11018;SDS011;5563;52.296;6.806;2023-04-15T14:38:34;2.95;;;2.65;;
11018;SDS011;5563;52.296;6.806;2023-04-15T14:41:13;4.30;;;2.38;;
11018;SDS011;5563;52.296;6.806;2023-04-15T14:43:41;5.85;;;2.92;;
11018;SDS011;5563;52.296;6.806;2023-04-15T14:46:14;4.40;;;2.50;;
11018;SDS011;5563;52.296;6.806;2023-04-15T14:48:47;5.57;;;2.65;;
11018;SDS011;5563;52.296;6.806;2023-04-15T14:51:21;3.80;;;2.35;;
11018;SDS011;5563;52.296;6.806;2023-04-15T14:53:48;3.63;;;2.40;;
11018;SDS011;5563;52.296;6.806;2023-04-15T14:56:21;6.03;;;2.60;;
11018;SDS011;5563;52.296;6.806;2023-04-15T14:58:48;2.70;;;2.47;;
11018;SDS011;5563;52.296;6.806;2023-04-15T15:01:22;3.50;;;2.17;;
11018;SDS011;5563;52.296;6.806;2023-04-15T15:03:49;3.42;;;2.00;;
11018;SDS011;5563;52.296;6.806;2023-04-15T15:06:22;4.57;;;2.00;;
11018;SDS011;5563;52.296;6.806;2023-04-15T15:08:55;6.90;;;2.40;;
11018;SDS011;5563;52.296;6.806;2023-04-15T15:11:22;3.45;;;2.30;;
11018;SDS011;5563;52.296;6.806;2023-04-15T15:13:55;4.55;;;2.22;;
11018;SDS011;5563;52.296;6.806;2023-04-15T15:16:22;3.25;;;1.70;;
11018;SDS011;5563;52.296;6.806;2023-04-15T15:18:56;3.80;;;2.47;;
11018;SDS011;5563;52.296;6.806;2023-04-15T15:21:23;5.13;;;2.50;;
11018;SDS011;5563;52.296;6.806;2023-04-15T15:23:56;3.00;;;2.10;;
11018;SDS011;5563;52.296;6.806;2023-04-15T15:26:23;2.30;;;1.95;;
11018;SDS011;5563;52.296;6.806;2023-04-15T15:28:56;3.88;;;1.92;;